Time,TemperatureF,DewpointF,PressureIn,WindDirection,WindDirectionDegrees,WindSpeedMPH,WindSpeedGustMPH,Humidity,HourlyPrecipIn,Conditions,Clouds,dailyrainin,SoftwareType,DateUTC
2013-02-19 00:00:00,36.8,27.9,30.18,South,186,1.0,1.0,70,0.00,,,0.00,Wunderground v.1.15,2013-02-19 05:00:00,
2013-02-19 00:05:00,36.9,28.0,30.18,South,186,1.0,3.0,70,0.00,,,0.00,Wunderground v.1.15,2013-02-19 05:05:00,
2013-02-19 00:10:00,37.0,28.5,30.18,South,184,2.0,3.0,71,0.00,,,0.00,Wunderground v.1.15,2013-02-19 05:10:00,
2013-02-19 00:21:00,36.8,28.3,30.18,South,184,1.0,1.0,71,0.00,,,0.00,Wunderground v.1.15,2013-02-19 05:21:00,
2013-02-19 00:25:00,36.7,28.2,30.18,South,184,1.0,1.0,71,0.00,,,0.00,Wunderground v.1.15,2013-02-19 05:25:00,
2013-02-19 00:31:00,36.5,28.0,30.18,South,184,1.0,1.0,71,0.00,,,0.00,Wunderground v.1.15,2013-02-19 05:31:00,
2013-02-19 00:36:00,36.3,27.8,30.18,South,184,1.0,2.0,71,0.00,,,0.00,Wunderground v.1.15,2013-02-19 05:36:00,
2013-02-19 00:41:00,36.3,27.8,30.18,South,184,1.0,3.0,71,0.00,,,0.00,Wunderground v.1.15,2013-02-19 05:41:00,
2013-02-19 00:50:00,36.2,27.0,30.17,South,184,1.0,3.0,69,0.00,,,0.00,Wunderground v.1.15,2013-02-19 05:50:00,
2013-02-19 01:00:00,36.1,26.2,30.16,South,182,2.0,2.0,67,0.00,,,0.00,Wunderground v.1.15,2013-02-19 06:00:00,
2013-02-19 01:06:00,36.1,25.8,30.16,South,182,1.0,3.0,66,0.00,,,0.00,Wunderground v.1.15,2013-02-19 06:06:00,
2013-02-19 01:11:00,36.1,25.8,30.15,South,182,1.0,1.0,66,0.00,,,0.00,Wunderground v.1.15,2013-02-19 06:11:00,
2013-02-19 01:21:00,36.4,26.1,30.14,South,182,2.0,2.0,66,0.00,,,0.00,Wunderground v.1.15,2013-02-19 06:21:00,
2013-02-19 01:31:00,36.4,26.8,30.14,South,182,1.0,1.0,68,0.00,,,0.00,Wunderground v.1.15,2013-02-19 06:31:00,
2013-02-19 01:36:00,36.5,27.6,30.14,South,182,2.0,4.0,70,0.00,,,0.00,Wunderground v.1.15,2013-02-19 06:36:00,
2013-02-19 01:41:00,36.6,28.1,30.14,South,178,3.0,4.0,71,0.00,,,0.00,Wunderground v.1.15,2013-02-19 06:41:00,
2013-02-19 01:50:00,36.8,28.6,30.13,South,180,3.0,4.0,72,0.00,,,0.00,Wunderground v.1.15,2013-02-19 06:50:00,
2013-02-19 02:00:00,36.9,28.4,30.13,South,183,2.0,6.0,71,0.00,,,0.00,Wunderground v.1.15,2013-02-19 07:00:00,
2013-02-19 02:06:00,37.0,28.5,30.13,South,183,3.0,6.0,71,0.00,,,0.00,Wunderground v.1.15,2013-02-19 07:06:00,
2013-02-19 02:11:00,37.1,28.6,30.13,South,184,3.0,3.0,71,0.00,,,0.00,Wunderground v.1.15,2013-02-19 07:11:00,
2013-02-19 02:21:00,37.0,28.5,30.13,South,184,2.0,3.0,71,0.00,,,0.00,Wunderground v.1.15,2013-02-19 07:21:00,
2013-02-19 02:30:00,37.0,28.1,30.13,SSW,196,2.0,2.0,70,0.00,,,0.00,Wunderground v.1.15,2013-02-19 07:30:00,
2013-02-19 02:35:00,37.1,27.9,30.13,SSW,211,1.0,2.0,69,0.00,,,0.00,Wunderground v.1.15,2013-02-19 07:35:00,
2013-02-19 02:40:00,37.1,27.9,30.13,South,187,1.0,3.0,69,0.00,,,0.00,Wunderground v.1.15,2013-02-19 07:40:00,
2013-02-19 02:50:00,37.4,28.2,30.13,South,182,2.0,2.0,69,0.00,,,0.00,Wunderground v.1.15,2013-02-19 07:50:00,
2013-02-19 03:01:00,37.2,28.3,30.13,South,182,1.0,1.0,70,0.00,,,0.00,Wunderground v.1.15,2013-02-19 08:01:00,
2013-02-19 03:10:00,36.9,28.0,30.13,South,182,1.0,2.0,70,0.00,,,0.00,Wunderground v.1.15,2013-02-19 08:10:00,
2013-02-19 03:20:00,36.8,27.2,30.12,South,178,1.0,1.0,68,0.00,,,0.00,Wunderground v.1.15,2013-02-19 08:20:00,
2013-02-19 03:30:00,36.7,27.1,30.11,South,178,1.0,1.0,68,0.00,,,0.00,Wunderground v.1.15,2013-02-19 08:30:00,
2013-02-19 03:35:00,36.6,27.0,30.11,South,178,1.0,5.0,68,0.00,,,0.00,Wunderground v.1.15,2013-02-19 08:35:00,
2013-02-19 03:40:00,36.5,26.9,30.10,South,176,2.0,2.0,68,0.00,,,0.00,Wunderground v.1.15,2013-02-19 08:40:00,
2013-02-19 03:50:00,36.6,26.7,30.10,South,176,1.0,4.0,67,0.00,,,0.00,Wunderground v.1.15,2013-02-19 08:50:00,
2013-02-19 04:01:00,36.8,26.9,30.09,South,182,2.0,2.0,67,0.00,,,0.00,Wunderground v.1.15,2013-02-19 09:01:00,
2013-02-19 04:10:00,36.8,26.9,30.09,South,182,2.0,2.0,67,0.00,,,0.00,Wunderground v.1.15,2013-02-19 09:10:00,
2013-02-19 04:20:00,37.0,27.1,30.09,South,182,1.0,2.0,67,0.00,,,0.00,Wunderground v.1.15,2013-02-19 09:20:00,
2013-02-19 04:30:00,36.8,26.9,30.09,South,183,0.0,0.0,67,0.00,,,0.00,Wunderground v.1.15,2013-02-19 09:30:00,
2013-02-19 04:35:00,36.9,27.0,30.08,South,182,1.0,1.0,67,0.00,,,0.00,Wunderground v.1.15,2013-02-19 09:35:00,
2013-02-19 04:40:00,36.8,26.9,30.08,South,182,1.0,1.0,67,0.00,,,0.00,Wunderground v.1.15,2013-02-19 09:40:00,
2013-02-19 04:50:00,36.5,26.9,30.08,South,182,0.0,0.0,68,0.00,,,0.00,Wunderground v.1.15,2013-02-19 09:50:00,
2013-02-19 05:01:00,35.9,26.7,30.07,South,182,0.0,1.0,69,0.00,,,0.00,Wunderground v.1.15,2013-02-19 10:01:00,
2013-02-19 05:10:00,36.1,27.3,30.07,South,182,1.0,2.0,70,0.00,,,0.00,Wunderground v.1.15,2013-02-19 10:10:00,
2013-02-19 05:20:00,36.4,27.9,30.06,South,182,1.0,1.0,71,0.00,,,0.00,Wunderground v.1.15,2013-02-19 10:20:00,
2013-02-19 05:31:00,36.7,29.5,30.05,South,182,2.0,3.0,75,0.00,,,0.00,Wunderground v.1.15,2013-02-19 10:31:00,
2013-02-19 05:36:00,37.0,30.5,30.05,South,182,2.0,3.0,77,0.00,,,0.00,Wunderground v.1.15,2013-02-19 10:36:00,
2013-02-19 05:41:00,37.3,31.1,30.05,South,182,2.0,2.0,78,0.00,,,0.00,Wunderground v.1.15,2013-02-19 10:41:00,
2013-02-19 05:51:00,37.6,31.4,30.05,South,181,2.0,2.0,78,0.00,,,0.00,Wunderground v.1.15,2013-02-19 10:51:00,
2013-02-19 06:01:00,37.7,31.5,30.05,South,178,3.0,3.0,78,0.00,,,0.00,Wunderground v.1.15,2013-02-19 11:01:00,
2013-02-19 06:10:00,37.8,31.6,30.05,South,175,3.0,3.0,78,0.00,,,0.00,Wunderground v.1.15,2013-02-19 11:10:00,
2013-02-19 06:20:00,37.7,31.5,30.05,South,175,2.0,3.0,78,0.00,,,0.00,Wunderground v.1.15,2013-02-19 11:20:00,
2013-02-19 06:31:00,37.5,30.3,30.04,South,175,2.0,3.0,75,0.00,,,0.00,Wunderground v.1.15,2013-02-19 11:31:00,
2013-02-19 06:36:00,37.5,29.6,30.04,South,175,2.0,2.0,73,0.00,,,0.00,Wunderground v.1.15,2013-02-19 11:36:00,
2013-02-19 06:45:00,37.7,28.8,30.03,South,175,2.0,3.0,70,0.00,,,0.00,Wunderground v.1.15,2013-02-19 11:45:00,
2013-02-19 06:50:00,38.2,28.9,30.04,South,177,2.0,2.0,69,0.00,,,0.00,Wunderground v.1.15,2013-02-19 11:50:00,
2013-02-19 07:00:00,39.0,28.6,30.04,South,179,2.0,3.0,66,0.00,,,0.00,Wunderground v.1.15,2013-02-19 12:00:00,
2013-02-19 07:06:00,39.2,28.4,30.04,South,176,2.0,3.0,65,0.00,,,0.00,Wunderground v.1.15,2013-02-19 12:06:00,
2013-02-19 07:11:00,39.6,28.4,30.03,South,175,3.0,3.0,64,0.00,,,0.00,Wunderground v.1.15,2013-02-19 12:11:00,
2013-02-19 07:21:00,39.9,28.7,30.03,SSW,192,3.0,3.0,64,0.00,,,0.00,Wunderground v.1.15,2013-02-19 12:21:00,
2013-02-19 07:30:00,40.1,28.5,30.03,SSW,211,2.0,3.0,63,0.00,,,0.00,Wunderground v.1.15,2013-02-19 12:30:00,
2013-02-19 07:35:00,40.2,28.6,30.03,SSW,208,2.0,3.0,63,0.00,,,0.00,Wunderground v.1.15,2013-02-19 12:35:00,
2013-02-19 07:40:00,40.3,28.7,30.03,SW,214,3.0,3.0,63,0.00,,,0.00,Wunderground v.1.15,2013-02-19 12:40:00,
2013-02-19 07:51:00,40.6,29.0,30.02,SW,216,3.0,3.0,63,0.00,,,0.00,Wunderground v.1.15,2013-02-19 12:51:00,
2013-02-19 08:01:00,40.9,28.9,30.02,South,189,4.0,4.0,62,0.00,,,0.00,Wunderground v.1.15,2013-02-19 13:01:00,
2013-02-19 08:10:00,41.1,29.1,30.01,SSW,196,4.0,4.0,62,0.00,,,0.00,Wunderground v.1.15,2013-02-19 13:10:00,
2013-02-19 08:21:00,41.2,29.5,30.00,South,184,4.0,4.0,63,0.00,,,0.00,Wunderground v.1.15,2013-02-19 13:21:00,
2013-02-19 08:31:00,41.9,30.6,30.01,SW,225,5.0,6.0,64,0.00,,,0.00,Wunderground v.1.15,2013-02-19 13:31:00,
2013-02-19 08:40:00,42.4,31.1,30.01,SSW,213,4.0,7.0,64,0.00,,,0.00,Wunderground v.1.15,2013-02-19 13:40:00,
2013-02-19 08:50:00,42.5,31.2,30.01,SSW,209,6.0,6.0,64,0.00,,,0.00,Wunderground v.1.15,2013-02-19 13:50:00,
2013-02-19 09:01:00,43.1,31.7,30.00,WSW,241,5.0,7.0,64,0.00,,,0.00,Wunderground v.1.15,2013-02-19 14:01:00,
2013-02-19 09:10:00,43.2,32.2,30.00,SSW,201,5.0,5.0,65,0.00,,,0.00,Wunderground v.1.15,2013-02-19 14:10:00,
2013-02-19 09:21:00,43.3,31.9,30.00,SSE,167,4.0,5.0,64,0.00,,,0.00,Wunderground v.1.15,2013-02-19 14:21:00,
2013-02-19 09:30:00,43.4,31.6,29.99,WSW,246,5.0,9.0,63,0.00,,,0.00,Wunderground v.1.15,2013-02-19 14:30:00,
2013-02-19 09:35:00,43.4,31.6,29.99,SW,219,5.0,9.0,63,0.00,,,0.00,Wunderground v.1.15,2013-02-19 14:35:00,
2013-02-19 09:40:00,43.5,31.7,29.99,SW,232,6.0,7.0,63,0.00,,,0.00,Wunderground v.1.15,2013-02-19 14:40:00,
2013-02-19 09:51:00,43.9,31.7,29.99,SW,216,5.0,9.0,62,0.00,,,0.00,Wunderground v.1.15,2013-02-19 14:51:00,
2013-02-19 10:01:00,44.2,32.0,29.99,SW,234,6.0,9.0,62,0.00,,,0.00,Wunderground v.1.15,2013-02-19 15:01:00,
2013-02-19 10:11:00,43.4,33.9,29.99,SW,219,6.0,6.0,69,0.00,,,0.01,Wunderground v.1.15,2013-02-19 15:11:00,
2013-02-19 10:21:00,42.2,34.5,29.97,SSW,198,5.0,5.0,74,0.05,,,0.02,Wunderground v.1.15,2013-02-19 15:21:00,
2013-02-19 10:30:00,41.9,35.2,29.96,SW,221,3.0,5.0,77,0.05,,,0.02,Wunderground v.1.15,2013-02-19 15:30:00,
2013-02-19 10:35:00,42.1,35.4,29.97,SSW,211,3.0,3.0,77,0.04,,,0.02,Wunderground v.1.15,2013-02-19 15:35:00,
2013-02-19 10:40:00,42.3,35.3,29.97,SW,232,3.0,3.0,76,0.00,,,0.02,Wunderground v.1.15,2013-02-19 15:40:00,
2013-02-19 10:51:00,42.8,35.4,29.98,South,184,3.0,3.0,75,0.00,,,0.02,Wunderground v.1.15,2013-02-19 15:51:00,
2013-02-19 11:01:00,42.8,35.8,29.96,South,178,3.0,3.0,76,0.00,,,0.02,Wunderground v.1.15,2013-02-19 16:01:00,
2013-02-19 11:10:00,42.8,35.8,29.96,SSW,203,4.0,7.0,76,0.00,,,0.02,Wunderground v.1.15,2013-02-19 16:10:00,
2013-02-19 11:21:00,42.9,36.2,29.95,South,187,3.0,3.0,77,0.00,,,0.03,Wunderground v.1.15,2013-02-19 16:21:00,
2013-02-19 11:31:00,42.7,36.3,29.94,South,175,3.0,4.0,78,0.00,,,0.03,Wunderground v.1.15,2013-02-19 16:31:00,
2013-02-19 11:40:00,42.6,36.9,29.94,SW,235,4.0,5.0,80,0.00,,,0.03,Wunderground v.1.15,2013-02-19 16:40:00,
2013-02-19 11:51:00,42.5,37.1,29.93,WSW,246,3.0,3.0,81,0.00,,,0.04,Wunderground v.1.15,2013-02-19 16:51:00,
2013-02-19 12:01:00,42.5,37.7,29.92,South,180,3.0,6.0,83,0.07,,,0.05,Wunderground v.1.15,2013-02-19 17:01:00,
2013-02-19 12:11:00,42.6,38.4,29.92,SSW,213,3.0,3.0,85,0.05,,,0.05,Wunderground v.1.15,2013-02-19 17:11:00,
2013-02-19 12:21:00,42.5,38.3,29.91,SSW,200,3.0,5.0,85,0.00,,,0.05,Wunderground v.1.15,2013-02-19 17:21:00,
2013-02-19 12:30:00,42.6,38.7,29.90,SSW,197,3.0,10.0,86,0.00,,,0.06,Wunderground v.1.15,2013-02-19 17:30:00,
2013-02-19 12:35:00,42.8,38.9,29.90,SW,222,4.0,4.0,86,0.00,,,0.06,Wunderground v.1.15,2013-02-19 17:35:00,
2013-02-19 12:40:00,42.8,38.9,29.90,SSE,163,4.0,4.0,86,0.00,,,0.06,Wunderground v.1.15,2013-02-19 17:40:00,
2013-02-19 12:51:00,42.8,38.9,29.88,SW,235,5.0,7.0,86,0.00,,,0.06,Wunderground v.1.15,2013-02-19 17:51:00,
2013-02-19 13:01:00,43.1,39.2,29.86,South,178,5.0,7.0,86,0.00,,,0.06,Wunderground v.1.15,2013-02-19 18:01:00,
2013-02-19 13:10:00,43.3,39.7,29.85,South,174,5.0,7.0,87,0.00,,,0.06,Wunderground v.1.15,2013-02-19 18:10:00,
2013-02-19 13:21:00,43.3,39.7,29.84,SSW,205,4.0,4.0,87,0.00,,,0.06,Wunderground v.1.15,2013-02-19 18:21:00,
2013-02-19 13:31:00,43.6,40.0,29.83,SW,225,4.0,7.0,87,0.00,,,0.06,Wunderground v.1.15,2013-02-19 18:31:00,
2013-02-19 13:40:00,44.0,40.7,29.83,South,190,5.0,5.0,88,0.00,,,0.06,Wunderground v.1.15,2013-02-19 18:40:00,
2013-02-19 13:50:00,44.4,41.1,29.82,SSW,199,4.0,6.0,88,0.00,,,0.06,Wunderground v.1.15,2013-02-19 18:50:00,
2013-02-19 14:01:00,44.6,41.3,29.82,SSW,194,4.0,5.0,88,0.00,,,0.07,Wunderground v.1.15,2013-02-19 19:01:00,
2013-02-19 14:11:00,44.7,41.7,29.81,SW,229,4.0,5.0,89,0.00,,,0.07,Wunderground v.1.15,2013-02-19 19:11:00,
2013-02-19 14:21:00,44.7,41.7,29.80,SSW,193,5.0,5.0,89,0.00,,,0.07,Wunderground v.1.15,2013-02-19 19:21:00,
2013-02-19 14:31:00,44.7,41.9,29.79,South,184,5.0,5.0,90,0.00,,,0.07,Wunderground v.1.15,2013-02-19 19:31:00,
2013-02-19 14:40:00,44.6,42.1,29.79,SSW,195,5.0,11.0,91,0.00,,,0.07,Wunderground v.1.15,2013-02-19 19:40:00,
2013-02-19 14:51:00,44.4,42.2,29.79,SSW,192,4.0,7.0,92,0.00,,,0.07,Wunderground v.1.15,2013-02-19 19:51:00,
2013-02-19 15:01:00,44.5,42.3,29.78,SSW,206,4.0,6.0,92,0.00,,,0.08,Wunderground v.1.15,2013-02-19 20:01:00,
2013-02-19 15:11:00,44.3,42.1,29.77,SSW,197,5.0,5.0,92,0.00,,,0.08,Wunderground v.1.15,2013-02-19 20:11:00,
2013-02-19 15:21:00,44.4,42.2,29.77,SSW,200,5.0,5.0,92,0.00,,,0.08,Wunderground v.1.15,2013-02-19 20:21:00,
2013-02-19 15:30:00,44.4,42.2,29.77,SW,215,5.0,5.0,92,0.00,,,0.08,Wunderground v.1.15,2013-02-19 20:30:00,
2013-02-19 15:35:00,44.4,42.2,29.77,South,181,4.0,4.0,92,0.00,,,0.08,Wunderground v.1.15,2013-02-19 20:35:00,
2013-02-19 15:40:00,44.5,42.3,29.76,SW,236,4.0,4.0,92,0.00,,,0.08,Wunderground v.1.15,2013-02-19 20:40:00,
2013-02-19 15:51:00,44.7,42.2,29.76,SW,232,5.0,8.0,91,0.00,,,0.08,Wunderground v.1.15,2013-02-19 20:51:00,
2013-02-19 16:01:00,45.0,42.5,29.75,WSW,245,4.0,4.0,91,0.00,,,0.08,Wunderground v.1.15,2013-02-19 21:01:00,
2013-02-19 16:10:00,45.1,42.6,29.75,SSW,211,4.0,5.0,91,0.00,,,0.08,Wunderground v.1.15,2013-02-19 21:10:00,
2013-02-19 16:20:00,45.3,42.8,29.74,SW,220,4.0,5.0,91,0.00,,,0.08,Wunderground v.1.15,2013-02-19 21:20:00,
2013-02-19 16:31:00,45.5,43.0,29.74,South,173,5.0,5.0,91,0.00,,,0.08,Wunderground v.1.15,2013-02-19 21:31:00,
2013-02-19 16:40:00,45.6,43.1,29.74,SW,222,4.0,4.0,91,0.00,,,0.08,Wunderground v.1.15,2013-02-19 21:40:00,
2013-02-19 16:50:00,45.7,43.2,29.73,SSW,208,4.0,4.0,91,0.00,,,0.08,Wunderground v.1.15,2013-02-19 21:50:00,
2013-02-19 17:01:00,45.9,43.4,29.73,SW,230,7.0,7.0,91,0.00,,,0.08,Wunderground v.1.15,2013-02-19 22:01:00,
2013-02-19 17:06:00,46.0,43.2,29.74,WSW,237,6.0,7.0,90,0.00,,,0.08,Wunderground v.1.15,2013-02-19 22:06:00,
2013-02-19 17:15:00,46.1,43.3,29.74,SW,217,6.0,7.0,90,0.00,,,0.08,Wunderground v.1.15,2013-02-19 22:15:00,
2013-02-19 17:20:00,46.2,43.4,29.74,SSW,210,5.0,7.0,90,0.00,,,0.08,Wunderground v.1.15,2013-02-19 22:20:00,
2013-02-19 17:31:00,46.2,43.4,29.74,WSW,253,4.0,4.0,90,0.00,,,0.08,Wunderground v.1.15,2013-02-19 22:31:00,
2013-02-19 17:36:00,46.3,43.5,29.74,WSW,239,5.0,13.0,90,0.00,,,0.08,Wunderground v.1.15,2013-02-19 22:36:00,
2013-02-19 17:41:00,46.4,43.3,29.74,SW,227,6.0,7.0,89,0.00,,,0.08,Wunderground v.1.15,2013-02-19 22:41:00,
2013-02-19 17:50:00,46.3,43.2,29.75,WSW,242,5.0,9.0,89,0.00,,,0.08,Wunderground v.1.15,2013-02-19 22:50:00,
2013-02-19 18:00:00,46.3,43.2,29.75,SW,232,5.0,5.0,89,0.00,,,0.08,Wunderground v.1.15,2013-02-19 23:00:00,
2013-02-19 18:06:00,46.3,43.2,29.76,SW,232,4.0,5.0,89,0.00,,,0.08,Wunderground v.1.15,2013-02-19 23:06:00,
2013-02-19 18:11:00,46.3,43.2,29.77,NNW,334,3.0,3.0,89,0.00,,,0.08,Wunderground v.1.15,2013-02-19 23:11:00,
2013-02-19 18:20:00,46.2,43.1,29.78,WNW,294,2.0,3.0,89,0.00,,,0.08,Wunderground v.1.15,2013-02-19 23:20:00,
2013-02-19 18:30:00,46.1,42.7,29.77,WSW,238,3.0,5.0,88,0.00,,,0.08,Wunderground v.1.15,2013-02-19 23:30:00,
2013-02-19 18:35:00,46.0,42.3,29.76,WSW,240,4.0,12.0,87,0.00,,,0.08,Wunderground v.1.15,2013-02-19 23:35:00,
2013-02-19 18:41:00,46.0,42.3,29.76,SW,234,6.0,12.0,87,0.00,,,0.08,Wunderground v.1.15,2013-02-19 23:41:00,
2013-02-19 18:51:00,45.6,41.7,29.77,SW,226,4.0,9.0,86,0.00,,,0.08,Wunderground v.1.15,2013-02-19 23:51:00,
2013-02-19 19:01:00,45.1,41.5,29.77,WSW,240,4.0,4.0,87,0.00,,,0.08,Wunderground v.1.15,2013-02-20 00:01:00,
2013-02-19 19:11:00,44.9,41.3,29.77,WSW,248,3.0,4.0,87,0.00,,,0.08,Wunderground v.1.15,2013-02-20 00:11:00,
2013-02-19 19:20:00,44.7,41.4,29.78,SW,234,2.0,3.0,88,0.00,,,0.08,Wunderground v.1.15,2013-02-20 00:20:00,
2013-02-19 19:30:00,44.8,41.5,29.78,WSW,246,2.0,3.0,88,0.00,,,0.08,Wunderground v.1.15,2013-02-20 00:30:00,
2013-02-19 19:35:00,44.8,41.5,29.78,WSW,244,2.0,2.0,88,0.00,,,0.08,Wunderground v.1.15,2013-02-20 00:35:00,
2013-02-19 19:40:00,44.8,41.5,29.78,SW,232,1.0,4.0,88,0.00,,,0.08,Wunderground v.1.15,2013-02-20 00:40:00,
2013-02-19 19:51:00,44.8,41.5,29.78,WSW,242,2.0,4.0,88,0.00,,,0.08,Wunderground v.1.15,2013-02-20 00:51:00,
2013-02-19 20:05:00,44.5,41.2,29.79,WSW,257,1.0,4.0,88,0.00,,,0.08,Wunderground v.1.15,2013-02-20 01:05:00,
2013-02-19 20:11:00,44.5,41.2,29.79,WSW,256,1.0,4.0,88,0.00,,,0.08,Wunderground v.1.15,2013-02-20 01:11:00,
2013-02-19 20:25:00,44.0,40.7,29.79,WSW,248,1.0,1.0,88,0.00,,,0.08,Wunderground v.1.15,2013-02-20 01:25:00,
2013-02-19 20:30:00,43.8,40.5,29.80,WSW,248,1.0,1.0,88,0.00,,,0.08,Wunderground v.1.15,2013-02-20 01:30:00,
2013-02-19 20:36:00,43.7,40.4,29.80,WSW,249,1.0,1.0,88,0.00,,,0.08,Wunderground v.1.15,2013-02-20 01:36:00,
2013-02-19 20:45:00,43.4,40.1,29.80,West,279,1.0,1.0,88,0.00,,,0.08,Wunderground v.1.15,2013-02-20 01:45:00,
2013-02-19 20:51:00,43.3,40.3,29.80,West,279,1.0,1.0,89,0.00,,,0.08,Wunderground v.1.15,2013-02-20 01:51:00,
2013-02-19 21:00:00,42.9,39.6,29.81,West,279,0.0,0.0,88,0.00,,,0.08,Wunderground v.1.15,2013-02-20 02:00:00,
2013-02-19 21:05:00,42.7,39.7,29.81,West,279,0.0,0.0,89,0.00,,,0.08,Wunderground v.1.15,2013-02-20 02:05:00,
2013-02-19 21:10:00,42.5,39.5,29.81,West,279,0.0,0.0,89,0.00,,,0.08,Wunderground v.1.15,2013-02-20 02:10:00,
2013-02-19 21:21:00,42.0,39.3,29.82,West,281,1.0,1.0,90,0.00,,,0.08,Wunderground v.1.15,2013-02-20 02:21:00,
2013-02-19 21:31:00,41.8,38.8,29.82,West,281,1.0,2.0,89,0.00,,,0.08,Wunderground v.1.15,2013-02-20 02:31:00,
2013-02-19 21:36:00,41.8,38.8,29.82,West,265,1.0,2.0,89,0.00,,,0.08,Wunderground v.1.15,2013-02-20 02:36:00,
2013-02-19 21:41:00,41.9,38.0,29.82,North,355,2.0,3.0,86,0.00,,,0.08,Wunderground v.1.15,2013-02-20 02:41:00,
2013-02-19 21:50:00,42.1,36.1,29.83,WSW,245,2.0,10.0,79,0.00,,,0.08,Wunderground v.1.15,2013-02-20 02:50:00,
2013-02-19 22:00:00,42.6,34.2,29.83,North,355,3.0,3.0,72,0.00,,,0.08,Wunderground v.1.15,2013-02-20 03:00:00,
2013-02-19 22:06:00,42.6,33.5,29.83,NW,318,3.0,3.0,70,0.00,,,0.08,Wunderground v.1.15,2013-02-20 03:06:00,
2013-02-19 22:11:00,42.5,33.4,29.83,NNW,332,2.0,2.0,70,0.00,,,0.08,Wunderground v.1.15,2013-02-20 03:11:00,
2013-02-19 22:25:00,41.7,32.3,29.83,NW,318,2.0,5.0,69,0.00,,,0.08,Wunderground v.1.15,2013-02-20 03:25:00,
2013-02-19 22:30:00,41.6,32.2,29.83,NNW,342,2.0,5.0,69,0.00,,,0.08,Wunderground v.1.15,2013-02-20 03:30:00,
2013-02-19 22:35:00,41.4,32.0,29.83,NNW,340,1.0,1.0,69,0.00,,,0.08,Wunderground v.1.15,2013-02-20 03:35:00,
2013-02-19 22:40:00,41.2,31.8,29.83,NNW,340,1.0,1.0,69,0.00,,,0.08,Wunderground v.1.15,2013-02-20 03:40:00,
2013-02-19 22:51:00,41.0,31.6,29.83,NNW,336,1.0,4.0,69,0.00,,,0.08,Wunderground v.1.15,2013-02-20 03:51:00,
2013-02-19 23:01:00,40.6,31.2,29.83,NNW,327,2.0,2.0,69,0.00,,,0.08,Wunderground v.1.15,2013-02-20 04:01:00,
2013-02-19 23:10:00,40.4,30.3,29.84,WNW,301,2.0,2.0,67,0.00,,,0.08,Wunderground v.1.15,2013-02-20 04:10:00,
2013-02-19 23:20:00,40.4,29.6,29.84,NNW,336,2.0,2.0,65,0.00,,,0.08,Wunderground v.1.15,2013-02-20 04:20:00,
2013-02-19 23:30:00,40.2,28.6,29.84,NNW,348,3.0,3.0,63,0.00,,,0.08,Wunderground v.1.15,2013-02-20 04:30:00,
2013-02-19 23:41:00,40.1,28.1,29.84,West,275,2.0,3.0,62,0.00,,,0.08,Wunderground v.1.15,2013-02-20 04:41:00,
2013-02-19 23:51:00,39.7,27.7,29.84,NW,317,2.0,3.0,62,0.00,,,0.08,Wunderground v.1.15,2013-02-20 04:51:00,